createdAt,value
2022-12-05T00:02:01.895Z,31.73
2022-12-05T00:04:30.266Z,35.58
2022-12-05T00:06:58.350Z,32.75
2022-12-05T00:09:26.547Z,31.60
2022-12-05T00:11:54.485Z,34.92
2022-12-05T00:14:22.776Z,33.33
2022-12-05T00:16:50.730Z,31.92
2022-12-05T00:19:20.325Z,32.28
2022-12-05T00:21:48.270Z,31.23
2022-12-05T00:24:16.928Z,31.65
2022-12-05T00:26:45.273Z,34.35
2022-12-05T00:29:13.858Z,34.90
2022-12-05T00:31:42.290Z,35.15
2022-12-05T00:34:10.927Z,35.63
2022-12-05T00:36:40.901Z,34.38
2022-12-05T00:39:11.164Z,41.85
2022-12-05T00:41:39.373Z,36.42
2022-12-05T00:44:07.629Z,40.85
2022-12-05T00:46:36.498Z,38.87
2022-12-05T00:49:06.032Z,38.65
2022-12-05T00:51:36.679Z,34.33
2022-12-05T00:54:09.344Z,35.60
2022-12-05T00:56:37.589Z,38.60
2022-12-05T00:59:06.389Z,39.63
2022-12-05T01:01:36.197Z,36.03
2022-12-05T01:04:06.278Z,37.70
2022-12-05T01:06:34.589Z,40.50
2022-12-05T01:09:02.993Z,37.13
2022-12-05T01:11:37.624Z,40.33
2022-12-05T01:14:09.245Z,39.28
2022-12-05T01:16:38.526Z,39.90
2022-12-05T01:19:08.537Z,35.70
2022-12-05T01:21:36.479Z,37.53
2022-12-05T01:24:04.937Z,39.33
2022-12-05T01:26:34.226Z,40.95
2022-12-05T01:29:02.533Z,43.35
2022-12-05T01:31:32.041Z,45.72
2022-12-05T01:34:01.790Z,44.72
2022-12-05T01:36:30.076Z,44.20
2022-12-05T01:38:58.727Z,44.03
2022-12-05T01:41:29.351Z,45.03
2022-12-05T01:44:02.054Z,46.33
2022-12-05T01:46:31.964Z,44.05
2022-12-05T01:49:04.276Z,43.30
2022-12-05T01:51:33.573Z,49.45
2022-12-05T01:54:02.283Z,48.63
2022-12-05T01:56:32.703Z,48.90
2022-12-05T01:59:03.952Z,45.70
2022-12-05T02:01:32.040Z,44.20
2022-12-05T02:04:00.536Z,47.90
2022-12-05T02:06:29.026Z,50.20
2022-12-05T02:08:57.326Z,45.78
2022-12-05T02:11:27.067Z,44.97
2022-12-05T02:14:10.796Z,46.17
2022-12-05T02:16:47.555Z,48.92
2022-12-05T02:19:39.946Z,44.38
2022-12-05T02:22:28.576Z,44.47
2022-12-05T02:25:08.872Z,44.38
2022-12-05T02:28:10.826Z,44.23
2022-12-05T02:30:43.185Z,47.08
2022-12-05T02:33:18.697Z,42.05
2022-12-05T02:35:51.963Z,50.95
2022-12-05T02:38:26.888Z,49.70
2022-12-05T02:41:02.576Z,46.73
2022-12-05T02:43:34.613Z,43.05
2022-12-05T02:46:09.006Z,44.92
2022-12-05T02:48:37.748Z,41.85
2022-12-05T02:51:06.903Z,40.40
2022-12-05T02:53:36.312Z,39.80
2022-12-05T02:56:05.198Z,40.85
2022-12-05T02:58:35.270Z,41.35
2022-12-05T03:01:05.195Z,38.40
2022-12-05T03:03:34.300Z,42.85
2022-12-05T03:06:05.410Z,47.73
2022-12-05T03:08:36.560Z,61.33
2022-12-05T03:11:05.136Z,47.67
2022-12-05T03:13:36.906Z,50.28
2022-12-05T03:16:09.980Z,54.50
2022-12-05T03:18:40.411Z,46.90
2022-12-05T03:21:12.409Z,43.72
2022-12-05T03:23:43.165Z,46.35
2022-12-05T03:26:17.771Z,44.85
2022-12-05T03:28:52.900Z,45.78
2022-12-05T03:31:26.025Z,46.93
2022-12-05T03:33:58.875Z,45.58
2022-12-05T03:36:30.193Z,43.33
2022-12-05T03:39:04.212Z,41.08
2022-12-05T03:41:37.249Z,48.15
2022-12-05T03:44:08.906Z,39.37
2022-12-05T03:46:41.636Z,37.90
2022-12-05T03:49:13.132Z,44.30
2022-12-05T03:51:43.621Z,41.25
2022-12-05T03:54:15.329Z,44.05
2022-12-05T03:56:46.521Z,40.40
2022-12-05T03:59:18.309Z,45.30
2022-12-05T04:01:48.605Z,43.58
2022-12-05T04:04:20.111Z,46.42
2022-12-05T04:06:50.371Z,46.35
2022-12-05T04:09:21.787Z,46.03
2022-12-05T04:11:52.863Z,46.83
2022-12-05T04:14:24.631Z,42.35
2022-12-05T04:17:05.690Z,42.20
2022-12-05T04:19:57.712Z,43.08
2022-12-05T04:22:27.064Z,40.70
2022-12-05T04:25:13.597Z,36.13
2022-12-05T04:27:44.425Z,42.53
2022-12-05T04:30:15.109Z,37.08
2022-12-05T04:32:47.496Z,37.25
2022-12-05T04:35:18.768Z,36.73
2022-12-05T04:37:49.148Z,33.15
2022-12-05T04:40:20.815Z,35.88
2022-12-05T04:42:50.894Z,36.45
2022-12-05T04:45:23.701Z,30.08
2022-12-05T04:47:56.875Z,31.53
2022-12-05T04:50:25.910Z,30.65
2022-12-05T04:52:55.525Z,31.55
2022-12-05T04:55:26.689Z,33.28
2022-12-05T04:58:02.907Z,29.77
2022-12-05T05:00:32.106Z,30.80
2022-12-05T05:03:06.244Z,34.38
2022-12-05T05:05:36.180Z,31.88
2022-12-05T05:08:04.595Z,31.40
2022-12-05T05:10:36.617Z,29.42
2022-12-05T05:13:04.788Z,33.67
2022-12-05T05:15:32.716Z,27.92
2022-12-05T05:18:02.144Z,29.00
2022-12-05T05:20:30.137Z,31.40
2022-12-05T05:22:58.982Z,28.50
2022-12-05T05:25:26.989Z,27.60
2022-12-05T05:27:56.913Z,28.42
2022-12-05T05:30:25.564Z,31.05
2022-12-05T05:32:54.109Z,28.95
2022-12-05T05:35:23.593Z,33.55
2022-12-05T05:37:51.802Z,31.30
2022-12-05T05:40:20.280Z,34.13
2022-12-05T05:42:49.994Z,32.33
2022-12-05T05:45:18.522Z,30.85
2022-12-05T05:47:48.977Z,32.20
2022-12-05T05:50:21.464Z,31.33
2022-12-05T05:52:51.599Z,31.40
2022-12-05T05:55:20.002Z,30.20
2022-12-05T05:57:48.200Z,34.80
2022-12-05T06:00:16.752Z,33.08
2022-12-05T06:02:45.107Z,32.37
2022-12-05T06:05:13.134Z,32.20
2022-12-05T06:07:41.491Z,32.65
2022-12-05T06:10:11.222Z,36.13
2022-12-05T06:12:39.391Z,30.60
2022-12-05T06:15:08.896Z,30.17
2022-12-05T06:17:38.432Z,32.15
2022-12-05T06:20:08.418Z,34.58
2022-12-05T06:22:36.717Z,36.35
2022-12-05T06:25:05.054Z,35.92
2022-12-05T06:27:34.743Z,34.73
2022-12-05T06:30:02.762Z,33.67
2022-12-05T06:32:31.584Z,32.45
2022-12-05T06:34:59.505Z,31.83
2022-12-05T06:37:27.723Z,34.08
2022-12-05T06:39:56.088Z,33.23
2022-12-05T06:42:24.479Z,34.15
2022-12-05T06:44:53.782Z,33.13
2022-12-05T06:47:21.952Z,30.48
2022-12-05T06:49:49.848Z,35.00
2022-12-05T06:52:18.020Z,32.67
2022-12-05T06:54:46.655Z,31.02
2022-12-05T06:57:15.443Z,34.33
2022-12-05T06:59:43.324Z,32.92
2022-12-05T07:02:13.156Z,35.55
2022-12-05T07:04:41.226Z,29.83
2022-12-05T07:07:09.446Z,28.35
2022-12-05T07:09:52.226Z,32.40
2022-12-05T07:12:20.669Z,33.38
2022-12-05T07:14:49.866Z,30.60
2022-12-05T07:17:20.043Z,33.93
2022-12-05T07:19:49.642Z,29.80
2022-12-05T07:22:18.778Z,33.33
2022-12-05T07:24:47.017Z,32.30
2022-12-05T07:27:18.437Z,33.08
2022-12-05T07:29:48.642Z,31.13
2022-12-05T07:32:17.027Z,30.40
2022-12-05T07:34:49.622Z,32.58
2022-12-05T07:37:20.511Z,30.35
2022-12-05T07:39:48.428Z,33.17
2022-12-05T07:42:16.822Z,32.17
2022-12-05T07:44:44.787Z,35.75
2022-12-05T07:47:13.001Z,29.73
2022-12-05T07:49:41.028Z,30.50
2022-12-05T07:52:10.717Z,33.50
2022-12-05T07:54:38.689Z,30.10
2022-12-05T07:57:06.820Z,29.13
2022-12-05T07:59:34.781Z,32.97
2022-12-05T08:02:03.062Z,32.47
2022-12-05T08:04:31.078Z,31.80
2022-12-05T08:06:59.229Z,32.97
2022-12-05T08:09:28.564Z,30.20
2022-12-05T08:11:56.804Z,30.35
2022-12-05T08:14:24.743Z,33.70
2022-12-05T08:16:53.089Z,32.28
2022-12-05T08:19:21.074Z,33.47
2022-12-05T08:21:49.351Z,35.28
2022-12-05T08:24:18.784Z,35.90
2022-12-05T08:26:51.076Z,36.88
2022-12-05T08:29:22.231Z,32.38
2022-12-05T08:31:52.125Z,34.07
2022-12-05T08:34:21.219Z,36.33
2022-12-05T08:36:50.032Z,36.75
2022-12-05T08:39:19.977Z,36.00
2022-12-05T08:41:48.980Z,35.60
2022-12-05T08:44:18.861Z,35.83
2022-12-05T08:46:48.715Z,34.65
2022-12-05T08:49:17.087Z,34.78
2022-12-05T08:51:45.704Z,29.25
2022-12-05T08:54:14.082Z,32.10
2022-12-05T08:56:42.270Z,29.67
2022-12-05T08:59:10.265Z,29.50
2022-12-05T09:01:40.517Z,28.33
2022-12-05T09:04:08.923Z,29.85
2022-12-05T09:06:39.065Z,26.27
2022-12-05T09:09:08.311Z,29.67
2022-12-05T09:11:40.712Z,29.23
2022-12-05T09:14:08.866Z,27.77
2022-12-05T09:16:39.400Z,23.70
2022-12-05T09:19:12.613Z,25.63
2022-12-05T09:21:40.865Z,25.87
2022-12-05T09:24:11.000Z,25.88
2022-12-05T09:26:40.889Z,26.27
2022-12-05T09:29:15.753Z,27.33
2022-12-05T09:31:45.545Z,25.48
2022-12-05T09:34:15.895Z,27.90
2022-12-05T09:36:44.779Z,25.25
2022-12-05T09:39:13.045Z,26.65
2022-12-05T09:42:09.932Z,23.70
2022-12-05T09:44:56.589Z,22.63
2022-12-05T09:47:33.753Z,23.53
2022-12-05T09:50:14.279Z,25.23
2022-12-05T09:52:45.725Z,25.80
2022-12-05T09:55:16.137Z,23.10
2022-12-05T09:57:47.473Z,25.92
2022-12-05T10:00:16.315Z,22.93
2022-12-05T10:02:51.652Z,26.48
2022-12-05T10:05:25.197Z,24.10
2022-12-05T10:08:02.264Z,22.98
2022-12-05T10:10:35.625Z,23.00
2022-12-05T10:13:27.736Z,25.77
2022-12-05T10:15:57.802Z,24.67
2022-12-05T10:18:31.460Z,23.90
2022-12-05T10:21:04.986Z,22.90
2022-12-05T10:26:27.157Z,19.77
2022-12-05T10:29:01.058Z,22.17
2022-12-05T10:31:32.391Z,24.73
2022-12-05T10:34:05.835Z,25.35
2022-12-05T10:36:35.780Z,24.48
2022-12-05T10:39:09.883Z,23.40
2022-12-05T10:41:39.436Z,22.40
2022-12-05T10:44:07.615Z,22.38
2022-12-05T10:46:36.067Z,26.92
2022-12-05T10:49:11.039Z,24.25
2022-12-05T10:51:40.836Z,24.13
2022-12-05T10:54:16.645Z,25.13
2022-12-05T10:56:46.284Z,25.02
2022-12-05T10:59:16.455Z,23.65
2022-12-05T11:01:48.823Z,25.45
2022-12-05T11:04:26.718Z,24.33
2022-12-05T11:06:58.787Z,23.70
2022-12-05T11:09:28.565Z,24.10
2022-12-05T11:12:16.025Z,22.50
2022-12-05T11:14:56.280Z,24.25
2022-12-05T11:17:26.805Z,22.80
2022-12-05T11:19:54.996Z,24.73
2022-12-05T11:22:31.633Z,23.10
2022-12-05T11:25:00.462Z,24.38
2022-12-05T11:27:30.747Z,23.00
2022-12-05T11:30:02.502Z,23.43
2022-12-05T11:32:32.265Z,22.48
2022-12-05T11:35:09.285Z,21.67
2022-12-05T11:37:41.936Z,24.25
2022-12-05T11:40:16.113Z,24.92
2022-12-05T11:43:12.405Z,23.77
2022-12-05T11:45:49.837Z,24.23
2022-12-05T11:48:27.036Z,23.15
2022-12-05T11:51:08.874Z,21.98
2022-12-05T11:53:50.320Z,25.58
2022-12-05T11:56:27.868Z,26.60
2022-12-05T11:59:02.809Z,27.10
2022-12-05T12:01:40.460Z,24.50
2022-12-05T12:04:24.959Z,26.77
2022-12-05T12:07:04.157Z,30.05
2022-12-05T12:09:44.046Z,24.00
2022-12-05T12:12:20.800Z,29.00
2022-12-05T12:14:56.275Z,37.53
2022-12-05T12:17:30.253Z,29.75
2022-12-05T12:20:10.703Z,27.13
2022-12-05T12:22:49.433Z,24.17
2022-12-05T12:25:26.162Z,24.13
2022-12-05T12:28:05.217Z,24.20
2022-12-05T12:30:44.298Z,24.60
2022-12-05T12:33:17.219Z,23.08
2022-12-05T12:35:48.471Z,25.43
2022-12-05T12:38:35.986Z,24.85
2022-12-05T12:41:09.863Z,25.90
2022-12-05T12:43:55.802Z,29.65
2022-12-05T12:46:32.197Z,25.08
2022-12-05T12:49:11.845Z,25.97
2022-12-05T12:51:45.065Z,24.65
2022-12-05T12:54:40.127Z,24.25
2022-12-05T12:57:24.102Z,23.27
2022-12-05T13:00:01.761Z,28.80
2022-12-05T13:02:34.839Z,23.97
2022-12-05T13:05:08.014Z,24.20
2022-12-05T13:07:37.807Z,24.27
2022-12-05T13:10:13.817Z,24.80
2022-12-05T13:12:44.070Z,23.52
2022-12-05T13:15:15.505Z,21.63
2022-12-05T13:17:45.223Z,21.27
2022-12-05T13:20:16.331Z,21.98
2022-12-05T13:22:45.093Z,20.83
2022-12-05T13:25:15.602Z,20.13
2022-12-05T13:27:54.972Z,21.43
2022-12-05T13:30:23.743Z,21.83
2022-12-05T13:32:56.758Z,17.98
2022-12-05T13:35:49.216Z,21.27
2022-12-05T13:38:39.523Z,18.40
2022-12-05T13:41:25.370Z,19.07
2022-12-05T13:44:05.928Z,22.17
2022-12-05T13:46:36.635Z,21.75
2022-12-05T13:49:08.839Z,23.70
2022-12-05T13:51:41.621Z,24.75
2022-12-05T13:54:13.279Z,23.47
2022-12-05T13:56:50.326Z,20.98
2022-12-05T13:59:55.780Z,22.50
2022-12-05T14:02:56.361Z,21.75
2022-12-05T14:05:45.740Z,20.60
2022-12-05T14:08:53.992Z,21.77
2022-12-05T14:11:21.997Z,22.02
2022-12-05T14:13:50.624Z,19.50
2022-12-05T14:16:43.911Z,18.13
2022-12-05T14:19:43.515Z,17.23
2022-12-05T14:22:32.689Z,16.00
2022-12-05T14:25:05.260Z,14.77
2022-12-05T14:27:44.591Z,12.13
2022-12-05T14:30:22.828Z,12.07
2022-12-05T14:32:51.949Z,11.63
2022-12-05T14:35:25.643Z,8.43
2022-12-05T14:37:55.525Z,8.43
2022-12-05T14:40:29.267Z,8.63
2022-12-05T14:42:58.924Z,7.72
2022-12-05T14:45:33.548Z,6.47
2022-12-05T14:48:03.176Z,8.27
2022-12-05T14:50:42.214Z,7.32
2022-12-05T14:53:34.933Z,6.00
2022-12-05T14:56:16.259Z,6.13
2022-12-05T14:58:48.639Z,6.95
2022-12-05T15:01:19.806Z,6.30
2022-12-05T15:04:05.359Z,5.80
2022-12-05T15:06:36.593Z,7.18
2022-12-05T15:09:35.343Z,6.10
2022-12-05T15:11:56.011Z,5.95
2022-12-05T15:14:31.089Z,7.10
2022-12-05T15:17:00.738Z,5.57
2022-12-05T15:19:31.448Z,8.40
2022-12-05T15:22:02.723Z,6.05
2022-12-05T15:24:38.053Z,5.55
2022-12-05T15:27:07.975Z,5.97
2022-12-05T15:29:36.141Z,6.70
2022-12-05T15:32:06.399Z,7.50
2022-12-05T15:34:38.417Z,7.43
2022-12-05T15:37:13.330Z,9.00
2022-12-05T15:39:55.782Z,6.70
2022-12-05T15:42:29.235Z,6.60
2022-12-05T15:45:13.440Z,5.97
2022-12-05T15:47:42.525Z,6.68
2022-12-05T15:50:14.409Z,6.65
2022-12-05T15:52:47.300Z,5.90
2022-12-05T15:55:17.091Z,6.70
2022-12-05T15:57:48.022Z,6.72
2022-12-05T16:00:18.239Z,10.77
2022-12-05T16:02:48.709Z,9.57
2022-12-05T16:05:22.098Z,8.37
2022-12-05T16:07:53.638Z,11.23
2022-12-05T16:10:29.120Z,9.00
2022-12-05T16:13:04.322Z,8.73
2022-12-05T16:15:32.566Z,8.80
2022-12-05T16:18:02.205Z,11.57
2022-12-05T16:20:34.150Z,16.85
2022-12-05T16:23:05.986Z,10.23
2022-12-05T16:25:36.011Z,12.23
2022-12-05T16:28:17.217Z,11.93
2022-12-05T16:30:57.067Z,12.17
2022-12-05T16:33:25.800Z,10.80
2022-12-05T16:35:53.981Z,11.20
2022-12-05T16:38:25.685Z,12.68
2022-12-05T16:40:58.792Z,9.23
2022-12-05T16:43:30.481Z,8.73
2022-12-05T16:46:00.642Z,7.25
2022-12-05T16:48:29.952Z,10.52
2022-12-05T16:51:18.243Z,7.88
2022-12-05T16:53:51.682Z,10.68
2022-12-05T16:56:21.869Z,7.97
2022-12-05T16:58:50.199Z,9.13
2022-12-05T17:01:20.577Z,8.98
2022-12-05T17:03:49.326Z,8.10
2022-12-05T17:06:18.272Z,8.60
2022-12-05T17:08:47.929Z,8.77
2022-12-05T17:11:17.839Z,7.50
2022-12-05T17:13:48.280Z,6.03
2022-12-05T17:16:16.390Z,7.07
2022-12-05T17:18:44.649Z,7.22
2022-12-05T17:21:15.444Z,7.00
2022-12-05T17:23:47.931Z,8.57
2022-12-05T17:26:20.135Z,6.72
2022-12-05T17:28:48.416Z,7.78
2022-12-05T17:31:17.704Z,9.48
2022-12-05T17:33:46.838Z,9.77
2022-12-05T17:36:15.202Z,8.75
2022-12-05T17:38:44.118Z,8.18
2022-12-05T17:41:17.123Z,8.15
2022-12-05T17:43:46.636Z,7.70
2022-12-05T17:46:17.197Z,9.10
2022-12-05T17:48:45.499Z,7.43
2022-12-05T17:51:14.556Z,7.47
2022-12-05T17:53:44.398Z,7.80
2022-12-05T17:56:12.876Z,7.80
2022-12-05T17:58:42.869Z,7.53
2022-12-05T18:01:15.754Z,7.97
2022-12-05T18:03:44.697Z,8.40
2022-12-05T18:06:12.735Z,9.45
2022-12-05T18:08:43.800Z,7.47
2022-12-05T18:11:14.438Z,8.03
2022-12-05T18:13:43.984Z,6.65
2022-12-05T18:16:13.181Z,7.30
2022-12-05T18:18:41.471Z,7.65
2022-12-05T18:21:11.681Z,6.53
2022-12-05T18:23:41.661Z,8.37
2022-12-05T18:26:11.111Z,10.85
2022-12-05T18:28:40.078Z,8.10
2022-12-05T18:31:11.335Z,8.75
2022-12-05T18:33:40.269Z,8.88
2022-12-05T18:36:09.764Z,6.57
2022-12-05T18:38:39.284Z,9.70
2022-12-05T18:41:08.066Z,8.23
2022-12-05T18:43:37.059Z,6.47
2022-12-05T18:46:06.009Z,6.68
2022-12-05T18:48:42.626Z,5.77
2022-12-05T18:51:14.939Z,5.40
2022-12-05T18:53:51.913Z,8.15
2022-12-05T18:56:23.939Z,8.95
2022-12-05T18:58:57.389Z,7.90
2022-12-05T19:01:25.858Z,8.67
2022-12-05T19:03:56.053Z,6.85
2022-12-05T19:06:25.601Z,8.27
2022-12-05T19:08:55.257Z,6.10
2022-12-05T19:11:23.865Z,7.10
2022-12-05T19:13:55.529Z,7.70
2022-12-05T19:16:23.518Z,7.00
2022-12-05T19:18:56.114Z,14.88
2022-12-05T19:21:24.877Z,20.05
2022-12-05T19:23:53.213Z,19.70
2022-12-05T19:26:21.668Z,51.50
2022-12-05T19:28:50.509Z,20.15
2022-12-05T19:31:21.232Z,28.13
2022-12-05T19:33:51.784Z,23.58
2022-12-05T19:36:23.444Z,27.10
2022-12-05T19:38:52.930Z,39.73
2022-12-05T19:41:22.881Z,22.45
2022-12-05T19:43:51.401Z,28.77
2022-12-05T19:46:21.166Z,22.58
2022-12-05T19:48:49.560Z,23.02
2022-12-05T19:51:17.598Z,39.63
2022-12-05T19:53:47.655Z,27.50
2022-12-05T19:56:17.642Z,28.40
2022-12-05T19:58:46.558Z,36.55
2022-12-05T20:01:16.519Z,32.90
2022-12-05T20:03:48.506Z,21.77
2022-12-05T20:06:17.222Z,26.05
2022-12-05T20:08:47.472Z,22.58
2022-12-05T20:11:17.741Z,22.13
2022-12-05T20:13:47.746Z,19.13
2022-12-05T20:16:18.369Z,22.03
2022-12-05T20:18:47.172Z,15.93
2022-12-05T20:21:16.664Z,14.52
2022-12-05T20:23:44.969Z,13.35
2022-12-05T20:26:17.168Z,13.15
2022-12-05T20:28:46.611Z,13.17
2022-12-05T20:31:16.825Z,13.52
2022-12-05T20:33:45.381Z,17.20
2022-12-05T20:36:14.843Z,12.77
2022-12-05T20:38:43.241Z,12.77
2022-12-05T20:41:15.434Z,12.90
2022-12-05T20:43:43.920Z,11.95
2022-12-05T20:46:14.313Z,15.38
2022-12-05T20:48:42.614Z,14.60
2022-12-05T20:51:12.357Z,12.55
2022-12-05T20:53:42.338Z,11.27
2022-12-05T20:56:11.970Z,12.70
2022-12-05T20:58:41.860Z,10.25
2022-12-05T21:01:11.483Z,10.65
2022-12-05T21:03:41.677Z,10.68
2022-12-05T21:06:10.730Z,11.80
2022-12-05T21:08:39.148Z,12.27
2022-12-05T21:11:08.315Z,12.35
2022-12-05T21:13:36.495Z,14.73
2022-12-05T21:16:08.069Z,13.55
2022-12-05T21:18:36.551Z,12.83
2022-12-05T21:21:06.493Z,13.02
2022-12-05T21:23:35.434Z,14.63
2022-12-05T21:26:05.084Z,11.32
2022-12-05T21:28:35.097Z,14.48
2022-12-05T21:31:09.417Z,15.23
2022-12-05T21:33:38.103Z,11.68
2022-12-05T21:36:06.997Z,13.70
2022-12-05T21:38:35.790Z,10.32
2022-12-05T21:41:04.827Z,13.00
2022-12-05T21:43:34.822Z,12.73
2022-12-05T21:46:03.276Z,10.60
2022-12-05T21:48:33.545Z,12.10
2022-12-05T21:51:01.646Z,10.88
2022-12-05T21:53:29.910Z,11.52
2022-12-05T21:56:01.350Z,11.33
2022-12-05T21:58:30.132Z,12.38
2022-12-05T22:00:58.349Z,13.93
2022-12-05T22:03:26.857Z,12.10
2022-12-05T22:06:02.390Z,13.17
2022-12-05T22:08:31.600Z,10.63
2022-12-05T22:11:05.320Z,14.25
2022-12-05T22:13:33.892Z,13.32
2022-12-05T22:16:02.712Z,12.83
2022-12-05T22:18:31.680Z,14.30
2022-12-05T22:21:00.718Z,11.52
2022-12-05T22:23:30.512Z,13.98
2022-12-05T22:25:59.772Z,12.50
2022-12-05T22:28:28.239Z,10.57
2022-12-05T22:30:56.693Z,11.70
2022-12-05T22:33:25.658Z,12.15
2022-12-05T22:35:54.079Z,12.20
2022-12-05T22:38:22.297Z,10.70
2022-12-05T22:40:56.023Z,10.93
2022-12-05T22:43:25.635Z,11.57
2022-12-05T22:45:54.002Z,11.25
2022-12-05T22:48:22.833Z,10.88
2022-12-05T22:50:52.626Z,10.25
2022-12-05T22:53:21.570Z,9.57
2022-12-05T22:55:49.817Z,11.93
2022-12-05T22:58:19.745Z,10.32
2022-12-05T23:00:48.029Z,9.77
2022-12-05T23:03:16.310Z,10.02
2022-12-05T23:05:45.233Z,10.67
2022-12-05T23:08:13.983Z,9.52
2022-12-05T23:10:42.087Z,9.40
2022-12-05T23:13:10.303Z,10.88
2022-12-05T23:15:39.663Z,10.05
2022-12-05T23:18:08.578Z,10.40
2022-12-05T23:20:36.609Z,9.73
2022-12-05T23:23:05.090Z,10.43
2022-12-05T23:25:33.059Z,11.15
2022-12-05T23:28:01.210Z,11.40
2022-12-05T23:30:29.315Z,10.30
2022-12-05T23:32:59.487Z,11.10
2022-12-05T23:35:27.385Z,10.88
2022-12-05T23:37:55.705Z,11.10
2022-12-05T23:40:24.457Z,11.57
2022-12-05T23:42:52.599Z,11.03
2022-12-05T23:45:20.648Z,9.73
2022-12-05T23:47:48.825Z,8.88
2022-12-05T23:50:18.525Z,9.73
2022-12-05T23:52:46.840Z,9.77
2022-12-05T23:55:14.963Z,9.67
2022-12-05T23:57:43.172Z,11.40
